Sunflower, MS (38778)

4:33 AM CST on December 05, 2016 (GMT -0600)
Bmpproperties | | Change Station

Elev 105 ft 33.52 °N, 90.42 °W | Updated 33 seconds ago

Overcast
Overcast
46.4 °F
Feels Like 46 °F
N
2.0
Wind Variable Wind from East

Today
High -- | Low -- °F
--% Chance of Precip.
Yesterday
High -- | Low -- °F
Precip. -- in
Pressure 30.00 in
Visibility 10.0 miles
Clouds Overcast 1100 ft
Windchill 46 °F
Dew Point 46 °F
Humidity 98%
Rainfall 0.00 in
Snow Depth Not available.
6:52 AM 4:53 PM
Waxing Crescent, 30% visible
METAR KRNV 051015Z AUTO 04005KT 10SM OVC011 07/07 A3000 RMK AO2 T00730073
Pressure 30.00 in
Visibility 10.0 miles
Clouds Overcast 1100 ft
Windchill 46 °F
Dew Point 46 °F
Humidity 98%
Rainfall 0.00 in
Snow Depth Not available.
6:52 AM 4:53 PM
Waxing Crescent, 30% visible
METAR KRNV 051015Z AUTO 04005KT 10SM OVC011 07/07 A3000 RMK AO2 T00730073

10-Day Weather Forecast

Almanac

Astronomy

Dec. 05, 2016 Rise Set
Actual Time
Civil Twilight
Nautical Twilight
Astronomical Twilight
Moon
Length of Visible Light
Length of Day
Tomorrow will be .
, % of the Moon is Illuminated

Today's Extremes

State Highs State Lows

Community

WunderPhotos

Upload Photos

1,955,775 photos uploaded!

WunderBlog® & News

Nearby

Air Quality

  Air Quality AQ Index Pollutant
Not available.

Snow Depth

Station Depth Elevation

Earthquake Activity

City Distance Mag. Time & Date
Minimum magnitude displayed is 2.5.

Coastal Water Temperatures

Place Temperature

Stations

Nearby Weather Stations

Station Location Temp. Windchill Dew Point Humidity Wind Precip. Elev Updated Type
                   

Watches & Warnings

There are currently no watches in effect.